Time;durP1;ratioP1;P1;durP2;ratioP2;P2;SDS_P1;SDS_P2;PMS_P1;PMS_P2;Temp;Humidity;BMP_temperature;BMP_pressure;BME280_temperature;BME280_humidity;BME280_pressure;Samples;Min_cycle;Max_cycle;Signal;HPM_P1;HPM_P2
2023/08/19 00:01:12;;;;;;;5.60;4.60;;;;;;;18.88;100.00;100004.53;109554;1272;100448;-72
2023/08/19 00:03:41;;;;;;;5.90;5.00;;;;;;;18.92;100.00;100010.60;109630;1277;23056;-73
2023/08/19 00:06:12;;;;;;;6.00;4.70;;;;;;;18.94;100.00;100007.92;109524;1276;100398;-72
2023/08/19 00:08:40;;;;;;;4.90;4.40;;;;;;;18.97;100.00;100005.37;109539;1277;22615;-72
2023/08/19 00:11:09;;;;;;;6.30;4.70;;;;;;;18.99;100.00;100001.58;109685;1274;22966;-72
2023/08/19 00:13:37;;;;;;;5.90;5.10;;;;;;;18.98;100.00;99997.44;109507;1280;100261;-72
2023/08/19 00:16:05;;;;;;;6.00;5.00;;;;;;;18.94;100.00;99993.47;109631;1280;22106;-72
2023/08/19 00:18:34;;;;;;;5.80;4.60;;;;;;;18.92;100.00;99993.80;109450;1276;99872;-72
2023/08/19 00:21:03;;;;;;;7.10;5.40;;;;;;;18.90;100.00;99989.58;109579;1277;22544;-72
2023/08/19 00:23:32;;;;;;;7.50;5.50;;;;;;;18.88;100.00;99988.66;109601;1276;23788;-73
2023/08/19 00:26:00;;;;;;;7.60;5.80;;;;;;;18.87;100.00;99984.52;109497;1276;100087;-73
2023/08/19 00:28:29;;;;;;;6.40;5.20;;;;;;;18.86;100.00;99983.56;109614;1276;22385;-72
2023/08/19 00:30:57;;;;;;;6.60;4.80;;;;;;;18.87;100.00;99983.81;109517;1280;100792;-72
2023/08/19 00:33:25;;;;;;;5.70;5.00;;;;;;;18.87;100.00;99984.30;109611;1277;22287;-72
2023/08/19 00:35:54;;;;;;;5.70;4.60;;;;;;;18.90;100.00;99984.63;109575;1276;23277;-72
2023/08/19 00:38:22;;;;;;;6.30;4.80;;;;;;;18.94;100.00;99983.42;109531;1276;99521;-72
2023/08/19 00:40:51;;;;;;;6.70;4.90;;;;;;;18.97;100.00;99981.57;109567;1276;22985;-72
2023/08/19 00:43:19;;;;;;;5.30;4.10;;;;;;;18.98;100.00;99983.83;109518;1277;100013;-72
2023/08/19 00:45:49;;;;;;;5.60;4.50;;;;;;;18.97;100.00;99982.70;109615;1270;22280;-72
2023/08/19 00:48:19;;;;;;;5.50;4.70;;;;;;;18.95;100.00;99982.25;109521;1273;100214;-74
2023/08/19 00:50:48;;;;;;;5.90;4.50;;;;;;;18.94;100.00;99977.04;109551;1276;22297;-74
2023/08/19 00:53:16;;;;;;;4.80;3.40;;;;;;;18.95;100.00;99977.71;109605;1276;22184;-74
2023/08/19 00:55:45;;;;;;;4.20;3.60;;;;;;;18.96;100.00;99974.77;109515;1276;100582;-72
2023/08/19 00:58:13;;;;;;;5.90;4.70;;;;;;;18.94;100.00;99973.20;109438;1277;22927;-72
2023/08/19 01:00:42;;;;;;;6.00;4.70;;;;;;;18.89;100.00;99965.98;109494;1276;100171;-72
2023/08/19 01:03:11;;;;;;;6.40;4.90;;;;;;;18.85;100.00;99963.31;109606;1276;22131;-72
2023/08/19 01:06:02;;;;;;;6.80;4.70;;;;;;;18.82;100.00;99959.37;109722;1277;23318;-72
2023/08/19 01:09:30;;;;;;;5.30;4.70;;;;;;;18.79;100.00;99957.09;109730;1276;22984;-72
2023/08/19 01:13:06;;;;;;;6.80;4.90;;;;;;;18.80;100.00;99954.56;109030;1285;99929;-73
2023/08/19 01:16:17;;;;;;;6.50;4.40;;;;;;;18.83;100.00;99953.30;108408;1290;23213;-72
2023/08/19 01:18:46;;;;;;;5.40;4.60;;;;;;;18.85;100.00;99952.41;108284;1291;100497;-73
2023/08/19 01:21:15;;;;;;;5.90;4.90;;;;;;;18.86;100.00;99954.94;108525;1290;23137;-73
2023/08/19 01:24:28;;;;;;;5.60;4.30;;;;;;;18.89;100.00;99958.11;108483;1292;22512;-72
2023/08/19 01:27:47;;;;;;;6.60;4.30;;;;;;;18.89;100.00;99961.09;108466;1292;23739;-73
2023/08/19 01:31:01;;;;;;;7.70;4.50;;;;;;;18.95;100.00;99958.81;107958;1291;99749;-73
2023/08/19 01:37:55;;;;;;;5.80;4.30;;;;;;;19.02;100.00;99954.41;107974;1285;99920;-73
2023/08/19 01:44:52;;;;;;;5.70;4.80;;;;;;;18.96;100.00;99951.85;106778;1307;99687;-72
2023/08/19 01:47:32;;;;;;;4.70;4.00;;;;;;;18.89;100.00;99952.98;106798;1307;22404;-72
2023/08/19 01:50:38;;;;;;;6.70;5.20;;;;;;;18.73;100.00;99953.01;107267;1301;99799;-72
2023/08/19 01:53:52;;;;;;;4.40;3.70;;;;;;;18.59;100.00;99952.48;108158;1295;23343;-72
2023/08/19 01:56:51;;;;;;;5.40;4.70;;;;;;;18.56;100.00;99946.14;107989;1295;101059;-72
2023/08/19 01:59:51;;;;;;;4.80;4.30;;;;;;;18.56;100.00;99944.89;107186;1294;22697;-73
2023/08/19 02:03:19;;;;;;;4.70;3.80;;;;;;;18.59;100.00;99944.56;107107;1304;100795;-73
2023/08/19 02:05:54;;;;;;;6.40;4.70;;;;;;;18.65;100.00;99944.59;107319;1304;22659;-72
2023/08/19 02:08:38;;;;;;;6.70;5.40;;;;;;;18.65;100.00;99941.43;107197;1304;100198;-72
2023/08/19 02:11:37;;;;;;;7.10;5.40;;;;;;;18.68;100.00;99943.63;107347;1303;22928;-72
2023/08/19 02:14:15;;;;;;;6.10;5.20;;;;;;;18.68;100.00;99949.51;107174;1298;100334;-72
2023/08/19 02:17:32;;;;;;;7.70;5.40;;;;;;;18.68;100.00;99947.39;107527;1295;23228;-72
2023/08/19 02:20:54;;;;;;;6.20;4.90;;;;;;;18.72;100.00;99943.91;108579;1288;100079;-73
2023/08/19 02:23:38;;;;;;;4.50;3.80;;;;;;;18.76;100.00;99938.99;108876;1290;23697;-72
2023/08/19 02:26:20;;;;;;;5.40;4.30;;;;;;;18.77;100.00;99940.81;109105;1276;99722;-71
2023/08/19 02:29:18;;;;;;;3.90;3.40;;;;;;;18.82;100.00;99946.50;109101;1277;22427;-73
2023/08/19 02:31:47;;;;;;;4.40;3.80;;;;;;;18.88;100.00;99951.50;109283;1279;100159;-73
2023/08/19 02:34:41;;;;;;;5.10;3.80;;;;;;;18.92;100.00;99948.48;109234;1283;22298;-73
2023/08/19 02:37:30;;;;;;;4.00;3.60;;;;;;;18.98;100.00;99947.84;109479;1277;100152;-73
2023/08/19 02:39:58;;;;;;;4.50;3.50;;;;;;;19.01;100.00;99947.43;109729;1274;22476;-73
2023/08/19 02:42:27;;;;;;;3.50;3.20;;;;;;;19.04;100.00;99947.27;109658;1270;100227;-72
2023/08/19 02:44:55;;;;;;;4.40;4.00;;;;;;;19.00;100.00;99944.13;109680;1283;22424;-73
2023/08/19 02:47:23;;;;;;;4.30;3.50;;;;;;;18.92;100.00;99947.77;109752;1276;22519;-73
2023/08/19 02:49:52;;;;;;;3.60;3.30;;;;;;;18.85;100.00;99951.86;109736;1276;100099;-74
2023/08/19 02:55:53;;;;;;;4.40;4.00;;;;;;;18.67;100.00;99942.52;109557;1276;100492;-73
2023/08/19 02:58:22;;;;;;;4.10;3.60;;;;;;;18.68;100.00;99946.66;109717;1277;22395;-74
2023/08/19 03:00:51;;;;;;;4.40;4.00;;;;;;;18.78;100.00;99948.19;109663;1277;100291;-73
2023/08/19 03:03:19;;;;;;;4.70;3.80;;;;;;;18.81;100.00;99951.48;109719;1276;23053;-73
2023/08/19 03:05:47;;;;;;;4.30;3.90;;;;;;;18.86;100.00;99951.06;109755;1261;22276;-74
2023/08/19 03:08:16;;;;;;;3.40;3.00;;;;;;;18.92;100.00;99948.85;109678;1277;100071;-73
2023/08/19 03:10:44;;;;;;;4.10;3.60;;;;;;;18.96;100.00;99943.91;109705;1277;23460;-75
2023/08/19 03:13:12;;;;;;;3.50;3.10;;;;;;;18.96;100.00;99939.37;109680;1276;100734;-75
2023/08/19 03:15:41;;;;;;;3.90;3.50;;;;;;;18.95;100.00;99939.77;109724;1273;22565;-74
2023/08/19 03:18:10;;;;;;;3.50;2.90;;;;;;;18.93;100.00;99938.88;109691;1277;22250;-73
2023/08/19 03:20:38;;;;;;;4.10;3.20;;;;;;;18.88;100.00;99938.27;109674;1276;100336;-73
2023/08/19 03:23:06;;;;;;;3.00;2.70;;;;;;;18.79;100.00;99934.67;109768;1277;22144;-74
2023/08/19 03:25:35;;;;;;;2.80;2.50;;;;;;;18.74;100.00;99932.77;109728;1276;99990;-73
2023/08/19 03:28:03;;;;;;;2.90;2.60;;;;;;;18.69;100.00;99925.74;109673;1276;22300;-74
2023/08/19 03:30:32;;;;;;;3.60;3.10;;;;;;;18.68;100.00;99924.98;109541;1276;99891;-74
2023/08/19 03:33:01;;;;;;;3.40;3.10;;;;;;;18.70;100.00;99924.81;109659;1277;22282;-74
2023/08/19 03:35:29;;;;;;;3.40;3.10;;;;;;;18.76;100.00;99914.11;109715;1273;22163;-73
2023/08/19 03:37:58;;;;;;;4.00;3.40;;;;;;;18.84;100.00;99911.58;109641;1277;100364;-73
2023/08/19 03:40:26;;;;;;;3.20;2.80;;;;;;;18.96;100.00;99910.08;109699;1268;23425;-73
2023/08/19 03:42:55;;;;;;;4.10;3.40;;;;;;;19.00;100.00;99912.55;109655;1276;100281;-73
2023/08/19 03:45:23;;;;;;;2.80;2.60;;;;;;;19.07;100.00;99912.56;109687;1267;22280;-74
2023/08/19 03:47:51;;;;;;;2.70;2.30;;;;;;;19.06;100.00;99912.52;109757;1276;23039;-74
2023/08/19 03:50:20;;;;;;;2.80;2.50;;;;;;;19.05;100.00;99912.43;109499;1271;99865;-75
2023/08/19 03:52:48;;;;;;;3.30;2.80;;;;;;;19.06;100.00;99911.13;109748;1273;22320;-74
2023/08/19 03:55:16;;;;;;;3.20;2.90;;;;;;;19.11;100.00;99909.96;109666;1277;99596;-74
2023/08/19 03:57:45;;;;;;;3.20;2.90;;;;;;;19.22;100.00;99906.41;109700;1277;22317;-74
2023/08/19 04:00:13;;;;;;;3.10;2.60;;;;;;;19.35;100.00;99906.96;109706;1276;23179;-74
2023/08/19 04:02:42;;;;;;;3.80;2.90;;;;;;;19.46;100.00;99911.56;109627;1276;99487;-73
2023/08/19 04:05:12;;;;;;;3.20;2.70;;;;;;;19.53;100.00;99912.23;109713;1277;22245;-72
2023/08/19 04:07:40;;;;;;;3.00;2.70;;;;;;;19.61;100.00;99916.84;109634;1277;100061;-73
2023/08/19 04:10:09;;;;;;;3.10;2.80;;;;;;;19.68;100.00;99921.10;109637;1277;22362;-73
2023/08/19 04:12:38;;;;;;;2.90;2.20;;;;;;;19.73;100.00;99928.06;109690;1277;101364;-74
2023/08/19 04:15:08;;;;;;;3.10;2.80;;;;;;;19.80;100.00;99931.94;109724;1273;22288;-73
2023/08/19 04:17:36;;;;;;;2.90;2.30;;;;;;;19.84;100.00;99930.33;109704;1273;22209;-73
2023/08/19 04:20:09;;;;;;;2.90;2.60;;;;;;;19.87;100.00;99931.15;109625;1276;100072;-73
2023/08/19 04:22:37;;;;;;;3.30;3.00;;;;;;;19.92;100.00;99931.86;109729;1277;22747;-72
2023/08/19 04:25:06;;;;;;;3.70;3.20;;;;;;;19.96;100.00;99930.15;109604;1273;100846;-73
2023/08/19 04:27:34;;;;;;;3.50;2.80;;;;;;;19.98;100.00;99931.00;109676;1276;22368;-73
2023/08/19 04:30:05;;;;;;;3.10;2.80;;;;;;;20.01;100.00;99931.11;109702;1273;23370;-74
2023/08/19 04:32:33;;;;;;;2.50;2.30;;;;;;;19.97;100.00;99928.95;109581;1277;99852;-73
2023/08/19 04:35:03;;;;;;;2.40;2.20;;;;;;;19.97;100.00;99925.43;109689;1276;23497;-73
2023/08/19 04:37:31;;;;;;;2.90;2.60;;;;;;;20.00;100.00;99929.20;109581;1276;99707;-74
2023/08/19 04:40:00;;;;;;;3.30;2.90;;;;;;;20.04;100.00;99935.93;109689;1276;22330;-73
2023/08/19 04:42:29;;;;;;;2.40;2.20;;;;;;;20.14;100.00;99936.20;109648;1271;101871;-73
2023/08/19 04:44:57;;;;;;;2.80;2.40;;;;;;;20.19;100.00;99935.90;109560;1270;22150;-72
2023/08/19 04:47:26;;;;;;;3.00;2.70;;;;;;;20.14;100.00;99934.77;109719;1277;22218;-73
2023/08/19 04:49:54;;;;;;;3.20;2.80;;;;;;;20.13;100.00;99939.06;109630;1276;100123;-73
2023/08/19 04:52:23;;;;;;;2.50;2.30;;;;;;;20.15;100.00;99938.71;109712;1274;22152;-74
2023/08/19 04:54:51;;;;;;;3.20;2.90;;;;;;;20.09;100.00;99939.94;109555;1276;99972;-74
2023/08/19 04:57:19;;;;;;;2.10;1.90;;;;;;;20.06;100.00;99943.23;109699;1276;22347;-73
2023/08/19 04:59:48;;;;;;;3.10;2.80;;;;;;;20.03;100.00;99941.22;109564;1277;22345;-73
2023/08/19 05:02:16;;;;;;;3.10;2.80;;;;;;;20.07;100.00;99940.69;109561;1277;100424;-73
2023/08/19 05:04:45;;;;;;;2.30;2.10;;;;;;;20.12;100.00;99937.02;109661;1276;22314;-74
2023/08/19 05:07:13;;;;;;;3.50;2.80;;;;;;;20.11;100.00;99940.11;109623;1276;100155;-74
2023/08/19 05:09:42;;;;;;;3.90;3.00;;;;;;;20.09;100.00;99939.25;109649;1270;22377;-74
2023/08/19 05:12:10;;;;;;;3.40;3.10;;;;;;;20.11;100.00;99932.73;109710;1276;22369;-74
2023/08/19 05:14:47;;;;;;;3.30;3.00;;;;;;;20.17;100.00;99933.28;109615;1277;99679;-73
2023/08/19 05:17:15;;;;;;;3.30;2.70;;;;;;;20.20;100.00;99931.08;109743;1268;22837;-73
2023/08/19 05:19:44;;;;;;;3.20;2.90;;;;;;;20.28;100.00;99935.36;109517;1277;100055;-73
2023/08/19 05:22:12;;;;;;;2.90;2.60;;;;;;;20.35;100.00;99937.77;109689;1271;22164;-73
2023/08/19 05:24:41;;;;;;;3.60;3.30;;;;;;;20.47;100.00;99938.70;109687;1276;99784;-72
2023/08/19 05:27:09;;;;;;;3.10;2.80;;;;;;;20.57;100.00;99934.69;109712;1276;22252;-72
2023/08/19 05:30:10;;;;;;;3.30;2.90;;;;;;;20.62;100.00;99941.67;109749;1277;22369;-72
2023/08/19 05:32:40;;;;;;;3.60;3.30;;;;;;;20.71;100.00;99946.88;109317;1278;100097;-73
2023/08/19 05:35:11;;;;;;;3.50;3.20;;;;;;;20.92;100.00;99947.79;109729;1270;22505;-73
2023/08/19 05:38:02;;;;;;;3.00;2.60;;;;;;;21.04;100.00;99949.71;109560;1277;100331;-74
2023/08/19 05:40:40;;;;;;;3.10;2.80;;;;;;;21.10;100.00;99951.86;109540;1276;23129;-73
2023/08/19 05:43:14;;;;;;;1.80;1.70;;;;;;;21.11;100.00;99947.50;109621;1276;101087;-72
2023/08/19 05:45:42;;;;;;;3.40;3.10;;;;;;;21.17;100.00;99950.00;109719;1276;22496;-73
2023/08/19 05:48:16;;;;;;;3.10;2.80;;;;;;;21.20;100.00;99950.95;109728;1276;22171;-73
2023/08/19 05:50:45;;;;;;;3.40;2.70;;;;;;;21.18;100.00;99950.99;109627;1277;100075;-73
2023/08/19 05:53:13;;;;;;;3.30;3.00;;;;;;;21.15;100.00;99951.20;109629;1277;22288;-74
2023/08/19 05:55:55;;;;;;;3.50;3.20;;;;;;;21.24;100.00;99953.64;109568;1274;99676;-71
2023/08/19 05:58:48;;;;;;;3.40;3.00;;;;;;;21.39;100.00;99949.16;109616;1276;23075;-74
2023/08/19 06:01:59;;;;;;;3.90;3.50;;;;;;;21.54;100.00;99948.36;109530;1280;101308;-73
2023/08/19 06:04:43;;;;;;;3.60;3.30;;;;;;;21.49;100.00;99947.77;103164;1273;8579335;-72
2023/08/19 06:07:26;;;;;;;5.30;3.80;;;;;;;21.64;100.00;99949.61;109489;1276;100114;-70
2023/08/19 06:10:18;;;;;;;4.20;3.80;;;;;;;21.93;100.00;99950.52;109636;1280;22166;-72
2023/08/19 06:12:48;;;;;;;4.00;3.60;;;;;;;22.20;100.00;99947.17;109541;1277;100319;-73
2023/08/19 06:15:19;;;;;;;3.80;3.40;;;;;;;22.26;100.00;99949.66;109731;1276;23280;-70
2023/08/19 06:17:48;;;;;;;3.50;3.00;;;;;;;22.50;100.00;99952.23;109722;1277;23201;-74
2023/08/19 06:20:18;;;;;;;4.20;3.70;;;;;;;22.73;100.00;99956.65;109658;1276;100189;-74
2023/08/19 06:22:46;;;;;;;4.60;4.10;;;;;;;23.00;100.00;99959.21;109723;1276;22210;-71
2023/08/19 06:25:14;;;;;;;3.70;3.30;;;;;;;23.05;100.00;99965.91;109627;1277;99862;-71
2023/08/19 06:27:43;;;;;;;3.50;3.10;;;;;;;23.21;100.00;99969.23;109695;1277;22349;-72
2023/08/19 06:30:12;;;;;;;4.60;4.00;;;;;;;23.40;100.00;99969.95;109717;1267;22181;-73
2023/08/19 06:32:41;;;;;;;5.20;3.90;;;;;;;23.68;100.00;99973.21;109553;1277;100136;-71
2023/08/19 06:35:11;;;;;;;2.30;2.10;;;;;;;23.89;100.00;99973.87;109347;1273;22347;-76
2023/08/19 06:37:50;;;;;;;4.50;3.90;;;;;;;23.78;100.00;99980.23;109766;1277;99746;-71
2023/08/19 06:40:22;;;;;;;4.00;3.50;;;;;;;23.80;100.00;99983.74;109742;1276;22994;-71
2023/08/19 06:42:52;;;;;;;5.40;4.60;;;;;;;23.79;100.00;99984.45;109799;1276;100281;-62
2023/08/19 06:45:23;;;;;;;4.70;4.10;;;;;;;23.80;100.00;99988.41;109948;1279;22282;-69
2023/08/19 06:47:57;;;;;;;5.10;4.40;;;;;;;23.91;100.00;99992.52;109854;1278;22159;-70
2023/08/19 06:50:30;;;;;;;3.90;2.90;;;;;;;23.81;100.00;100002.33;109741;1278;99700;-74
2023/08/19 06:53:00;;;;;;;5.10;3.70;;;;;;;23.69;100.00;100004.22;109901;1276;22254;-70
2023/08/19 06:55:29;;;;;;;5.70;4.60;;;;;;;23.67;100.00;99991.29;109792;1279;100394;-62
2023/08/19 06:58:03;;;;;;;5.30;3.70;;;;;;;24.15;100.00;99990.45;109947;1277;22120;-73
2023/08/19 07:00:34;;;;;;;4.60;3.80;;;;;;;24.24;100.00;100002.20;109733;1278;99825;-73
2023/08/19 07:03:04;;;;;;;5.10;4.10;;;;;;;24.15;100.00;100004.48;109949;1277;22340;-66
2023/08/19 07:05:36;;;;;;;5.10;3.80;;;;;;;24.33;100.00;100008.75;109981;1276;22160;-66
2023/08/19 07:08:09;;;;;;;3.80;3.40;;;;;;;24.42;100.00;100012.67;109863;1279;99894;-70
2023/08/19 07:10:40;;;;;;;4.60;4.10;;;;;;;24.33;100.00;100010.58;109962;1276;22461;-66
2023/08/19 07:13:12;;;;;;;5.20;4.40;;;;;;;24.39;100.00;100009.45;109927;1264;100597;-68
2023/08/19 07:15:57;;;;;;;4.30;3.30;;;;;;;24.41;100.00;100010.98;109813;1280;23006;-66
2023/08/19 07:18:27;;;;;;;5.10;4.60;;;;;;;24.28;100.00;100006.73;109927;1276;22290;-65
2023/08/19 07:21:00;;;;;;;3.90;3.50;;;;;;;24.25;100.00;100004.77;109966;1277;22901;-69
2023/08/19 07:23:29;;;;;;;5.00;3.80;;;;;;;24.43;100.00;100005.80;109996;1276;23021;-72
2023/08/19 07:25:58;;;;;;;3.60;3.10;;;;;;;24.56;100.00;100009.55;109888;1277;99890;-65
2023/08/19 07:28:30;;;;;;;4.20;3.50;;;;;;;24.59;100.00;100009.34;109751;1276;22155;-69
2023/08/19 07:30:59;;;;;;;5.40;4.00;;;;;;;24.42;99.90;100012.16;109898;1277;100843;-68
2023/08/19 07:33:32;;;;;;;4.40;3.60;;;;;;;24.42;99.99;100015.70;109837;1276;22284;-66
2023/08/19 07:36:00;;;;;;;4.70;3.20;;;;;;;24.73;100.00;100016.48;109945;1276;22223;-66
2023/08/19 07:38:29;;;;;;;5.30;4.10;;;;;;;24.86;99.13;100015.52;109887;1276;100011;-68
2023/08/19 07:40:59;;;;;;;4.00;3.60;;;;;;;24.94;99.33;100018.67;109878;1277;22247;-65
2023/08/19 07:43:28;;;;;;;4.70;4.10;;;;;;;25.17;98.75;100019.62;109863;1276;99673;-77
2023/08/19 07:45:56;;;;;;;4.20;3.50;;;;;;;25.33;98.12;100015.70;109927;1277;22138;-74
2023/08/19 07:48:25;;;;;;;4.50;3.60;;;;;;;25.45;98.41;100019.09;109971;1276;22048;-76
2023/08/19 07:50:54;;;;;;;3.80;3.50;;;;;;;25.98;98.75;100017.65;109867;1276;99882;-77
2023/08/19 07:53:23;;;;;;;4.40;4.00;;;;;;;26.26;97.60;100019.16;109944;1276;22314;-76
2023/08/19 07:55:52;;;;;;;4.90;3.60;;;;;;;26.52;97.24;100022.18;109861;1275;100576;-74
2023/08/19 07:58:21;;;;;;;6.60;3.40;;;;;;;26.74;96.62;100022.38;109984;1276;22297;-74
2023/08/19 08:00:49;;;;;;;4.60;4.00;;;;;;;27.11;96.91;100016.44;109903;1277;99869;-73
2023/08/19 08:03:18;;;;;;;4.20;3.80;;;;;;;28.12;97.79;100014.56;109984;1277;22439;-73
2023/08/19 08:05:50;;;;;;;5.10;2.90;;;;;;;30.09;99.76;100012.35;109873;1280;24120;-74
2023/08/19 08:08:18;;;;;;;4.80;4.20;;;;;;;32.06;95.72;100010.99;109730;1276;100118;-73
2023/08/19 08:10:51;;;;;;;4.80;3.00;;;;;;;33.47;92.33;100009.75;109839;1277;22863;-73
2023/08/19 08:13:20;;;;;;;3.30;3.00;;;;;;;34.82;91.28;100011.05;109882;1278;99758;-73
2023/08/19 08:15:59;;;;;;;4.50;3.40;;;;;;;36.61;90.66;100009.81;109930;1278;22376;-71
2023/08/19 08:18:28;;;;;;;4.00;3.00;;;;;;;38.03;87.73;100010.57;109938;1276;22255;-71
2023/08/19 08:21:05;;;;;;;2.50;2.30;;;;;;;38.76;84.76;100010.35;109872;1277;100996;-72
2023/08/19 08:23:34;;;;;;;3.40;3.10;;;;;;;39.15;79.91;100011.22;109930;1277;22130;-70
2023/08/19 08:26:05;;;;;;;2.30;2.10;;;;;;;39.58;76.02;100008.98;109782;1277;100252;-66
2023/08/19 08:28:34;;;;;;;3.20;2.60;;;;;;;40.01;73.03;100003.56;109897;1278;22545;-70
2023/08/19 08:31:03;;;;;;;4.30;2.20;;;;;;;39.67;69.29;99998.39;109862;1277;99912;-69
2023/08/19 08:33:31;;;;;;;2.60;2.40;;;;;;;38.73;64.60;100002.33;110007;1275;22289;-67
2023/08/19 08:36:00;;;;;;;3.00;2.40;;;;;;;38.79;63.04;100002.33;110004;1276;22313;-69
2023/08/19 08:38:29;;;;;;;3.40;2.20;;;;;;;38.53;58.29;100004.65;109860;1278;99749;-69
2023/08/19 08:41:03;;;;;;;3.60;2.40;;;;;;;39.07;58.33;100011.98;109969;1276;22167;-68
2023/08/19 08:43:33;;;;;;;;;;;;;;;39.65;54.10;100007.55;109895;1279;99698;-68
2023/08/19 08:46:03;;;;;;;5.20;2.70;;;;;;;40.11;54.14;100010.36;110011;1277;22295;-68
2023/08/19 08:48:32;;;;;;;2.90;2.60;;;;;;;41.37;53.44;100013.58;109934;1277;23157;-66
2023/08/19 08:51:02;;;;;;;2.50;1.90;;;;;;;42.16;48.93;100009.59;109906;1276;22341;-67
2023/08/19 08:53:33;;;;;;;2.30;2.10;;;;;;;41.87;43.96;100006.33;109872;1278;22381;-66
2023/08/19 08:56:03;;;;;;;2.30;2.10;;;;;;;41.96;42.98;100013.30;109879;1277;100623;-67
2023/08/19 08:58:32;;;;;;;2.60;2.10;;;;;;;43.07;43.26;100009.59;109936;1277;23032;-67
2023/08/19 09:01:03;;;;;;;2.60;2.20;;;;;;;44.36;42.88;100008.54;109850;1276;100371;-68
2023/08/19 09:03:33;;;;;;;2.10;1.70;;;;;;;45.83;42.70;100008.85;109834;1278;23157;-68
2023/08/19 09:06:10;;;;;;;2.70;2.10;;;;;;;46.86;40.61;100003.92;109700;1277;23037;-67
2023/08/19 09:09:11;;;;;;;2.30;2.20;;;;;;;46.75;38.37;100001.23;109854;1276;99613;-70
2023/08/19 09:11:44;;;;;;;2.80;2.50;;;;;;;48.45;38.08;99997.70;109988;1276;22267;-69
2023/08/19 09:14:37;;;;;;;3.10;2.90;;;;;;;48.97;36.30;100000.80;109790;1277;99441;-67
2023/08/19 09:17:07;;;;;;;4.30;3.00;;;;;;;48.97;33.40;100002.08;109914;1277;23103;-68
2023/08/19 09:19:38;;;;;;;2.90;2.70;;;;;;;47.77;30.26;100001.87;109789;1277;100329;-67
2023/08/19 09:22:16;;;;;;;3.50;3.30;;;;;;;46.97;30.12;99995.53;109989;1276;22181;-69
2023/08/19 09:24:46;;;;;;;3.60;3.30;;;;;;;47.64;30.33;99997.42;109908;1276;100040;-69
2023/08/19 09:27:28;;;;;;;3.70;3.40;;;;;;;47.50;28.98;99997.77;109950;1276;23031;-69
2023/08/19 09:29:59;;;;;;;4.00;3.80;;;;;;;47.44;29.34;99998.95;109978;1277;22344;-68
2023/08/19 09:32:33;;;;;;;5.10;4.80;;;;;;;49.73;31.02;99998.02;109842;1273;99811;-69
2023/08/19 09:35:08;;;;;;;5.70;5.40;;;;;;;52.65;30.45;99994.74;109908;1278;22322;-69
2023/08/19 09:42:21;;;;;;;8.60;8.10;;;;;;;53.24;28.10;99990.52;108407;1295;22849;-69
2023/08/19 09:44:52;;;;;;;11.10;10.50;;;;;;;53.38;25.92;99987.20;108337;1294;99847;-68
2023/08/19 09:47:21;;;;;;;11.80;11.20;;;;;;;54.15;26.79;99992.66;108533;1295;22079;-67
2023/08/19 09:49:57;;;;;;;15.20;14.30;;;;;;;56.09;26.35;99986.70;108047;1293;100140;-68
2023/08/19 09:52:26;;;;;;;18.40;17.40;;;;;;;57.64;25.48;99977.11;108558;1292;22468;-67
2023/08/19 09:54:56;;;;;;;19.40;18.30;;;;;;;58.93;25.26;99972.94;108577;1292;100160;-67
2023/08/19 09:57:37;;;;;;;21.70;20.60;;;;;;;60.14;24.31;99969.31;108381;1295;22348;-71
2023/08/19 10:00:09;;;;;;;26.30;24.90;;;;;;;61.04;23.11;99957.39;108535;1292;22416;-70
2023/08/19 10:02:42;;;;;;;29.50;27.60;;;;;;;61.28;21.44;99952.36;108459;1292;99944;-65
2023/08/19 10:05:15;;;;;;;31.30;30.00;;;;;;;60.34;19.76;99948.36;108294;1288;22435;-68
2023/08/19 10:07:49;;;;;;;34.30;32.40;;;;;;;59.59;18.51;99945.58;108425;1295;101370;-60
2023/08/19 10:10:24;;;;;;;32.40;30.50;;;;;;;58.82;17.45;99947.82;108366;1290;22323;-68
2023/08/19 10:12:56;;;;;;;27.30;25.80;;;;;;;57.16;16.64;99941.96;108330;1292;100006;-71
2023/08/19 10:15:27;;;;;;;27.60;26.10;;;;;;;56.91;17.16;99938.75;108365;1292;22143;-65
2023/08/19 10:17:59;;;;;;;25.30;23.80;;;;;;;57.37;17.01;99937.92;109352;1278;23133;-70
2023/08/19 10:20:29;;;;;;;;;;;;;;;56.72;16.59;99941.07;109725;1278;99873;-67
2023/08/19 10:23:07;;;;;;;22.30;21.10;;;;;;;55.90;16.34;99936.34;109881;1276;22184;-68
2023/08/19 10:25:41;;;;;;;21.50;19.60;;;;;;;54.72;16.79;99937.92;109845;1280;100006;-66
2023/08/19 10:28:11;;;;;;;22.60;21.30;;;;;;;55.87;17.47;99938.29;109919;1278;22262;-71
2023/08/19 10:30:40;;;;;;;26.50;24.80;;;;;;;57.58;17.93;99939.39;109735;1280;100831;-66
2023/08/19 10:33:32;;;;;;;;;;;;;;;59.31;17.63;99941.63;109932;1276;22430;-66
2023/08/19 10:36:03;;;;;;;30.50;28.80;;;;;;;58.59;16.67;99942.02;109930;1278;22151;-66
2023/08/19 10:38:43;;;;;;;;;;;;;;;57.90;17.05;99936.23;109797;1277;99874;-65
2023/08/19 10:41:20;;;;;;;;;;;;;;;58.25;16.71;99936.05;110036;1276;23152;-68
2023/08/19 10:43:55;;;;;;;32.70;30.60;;;;;;;56.92;15.71;99931.14;109898;1277;86603;-64
2023/08/19 10:46:30;;;;;;;30.00;28.40;;;;;;;56.10;16.16;99928.94;109929;1267;23685;-63
2023/08/19 10:49:00;;;;;;;31.20;29.30;;;;;;;56.28;16.77;99928.52;109835;1276;99955;-65
2023/08/19 10:51:53;;;;;;;31.00;29.30;;;;;;;57.68;16.93;99926.81;109941;1276;23021;-66
2023/08/19 10:54:41;;;;;;;33.80;31.90;;;;;;;59.04;16.35;99935.58;109950;1277;22297;-67
2023/08/19 10:57:17;;;;;;;35.00;33.10;;;;;;;58.31;15.69;99931.35;109916;1277;22306;-67
2023/08/19 10:59:47;;;;;;;36.80;34.00;;;;;;;57.08;15.25;99927.30;109928;1276;22328;-64
2023/08/19 11:02:17;;;;;;;37.20;35.10;;;;;;;56.57;15.28;99930.90;109833;1260;100020;-64
2023/08/19 11:04:47;;;;;;;37.00;34.70;;;;;;;56.86;15.56;99930.11;109811;1276;22098;-64
2023/08/19 11:07:17;;;;;;;31.40;29.60;;;;;;;56.72;15.19;99929.67;109860;1277;100828;-65
2023/08/19 11:09:48;;;;;;;29.10;27.50;;;;;;;56.16;15.71;99927.05;109927;1278;22362;-66
2023/08/19 11:12:22;;;;;;;26.90;25.30;;;;;;;57.21;15.73;99930.65;109929;1276;22310;-66
2023/08/19 11:14:52;;;;;;;25.60;24.20;;;;;;;57.25;15.47;99927.04;109878;1276;100854;-65
2023/08/19 11:17:32;;;;;;;15.90;14.80;;;;;;;56.26;15.35;99928.35;109812;1279;22157;-64
2023/08/19 11:20:12;;;;;;;8.60;8.10;;;;;;;53.01;15.51;99925.55;109850;1276;99857;-65
2023/08/19 11:22:45;;;;;;;5.90;5.50;;;;;;;50.95;16.65;99928.33;109964;1277;22176;-65
2023/08/19 11:25:15;;;;;;;5.50;5.00;;;;;;;51.82;17.08;99928.46;109875;1276;99831;-65
2023/08/19 11:27:45;;;;;;;4.90;4.50;;;;;;;52.84;17.30;99922.62;109934;1279;22345;-65
2023/08/19 11:30:14;;;;;;;3.40;3.10;;;;;;;51.71;16.93;99924.52;109976;1276;22224;-64
2023/08/19 11:32:46;;;;;;;2.90;2.10;;;;;;;48.99;17.36;99923.73;109889;1276;100027;-66
2023/08/19 11:35:15;;;;;;;2.30;2.10;;;;;;;47.21;17.72;99922.44;109917;1276;23033;-64
2023/08/19 11:37:44;;;;;;;2.50;2.10;;;;;;;44.84;18.46;99930.22;109874;1276;99565;-64
2023/08/19 11:40:14;;;;;;;2.20;1.70;;;;;;;43.65;19.59;99930.84;109962;1276;22260;-65
2023/08/19 11:43:06;;;;;;;2.30;1.70;;;;;;;44.20;20.27;99925.73;109817;1277;99921;-66
2023/08/19 11:45:39;;;;;;;1.60;1.50;;;;;;;45.18;20.45;99929.52;109893;1263;22163;-64
2023/08/19 11:48:18;;;;;;;1.70;1.60;;;;;;;45.24;20.75;99933.46;109920;1278;22382;-63
2023/08/19 11:50:50;;;;;;;3.10;1.60;;;;;;;44.78;20.66;99925.88;109768;1276;101839;-64
2023/08/19 11:53:27;;;;;;;2.00;1.70;;;;;;;43.78;21.07;99926.88;109929;1276;22352;-64
2023/08/19 11:55:58;;;;;;;2.80;1.40;;;;;;;42.64;21.54;99927.08;109782;1277;99922;-64
2023/08/19 11:58:38;;;;;;;1.90;1.70;;;;;;;41.51;21.78;99933.23;109961;1277;22143;-63
2023/08/19 12:01:07;;;;;;;1.70;1.60;;;;;;;40.55;22.33;99931.59;109898;1278;100151;-63
2023/08/19 12:03:41;;;;;;;3.00;1.90;;;;;;;40.04;22.85;99932.83;109962;1281;22319;-62
2023/08/19 12:06:10;;;;;;;3.90;1.70;;;;;;;39.59;23.72;99928.26;109955;1277;22159;-62